Huvudsida
METAR-TAF:

METAR-TAF

Flygplatser :

Turin-Caselles flygplats

Turin, Italien

latitud: 45-13N, longitud: 007-39E, höjd: 301 m

Aktuellt väderrapport

Denna rapport gjordes för 25 minuter sedan, klockan 03:20 UTC
Vind 1 kt varierande vindriktning
Temperatur 19°C
Fuktighet 83%
Tryck 1013 hPa
Sikt 10 km eller mer
Inga moln under 1 500 m eller inga cumulonimbus

METAR: LIMF 200320Z VRB01KT CAVOK 19/16 Q1013

Tid: 05:45 (03:45 UTC)

Väderprognos

Denna rapport gjordes för 4 timmar och 45 minuter sedan, klockan 23:00 UTC
Prognos gäller från 20 kl. 00 UTC till 20 kl. 24 UTC
Vind 5 kt varierande vindriktning
Sikt 10 km eller mer
Inga moln under 1 500 m eller inga cumulonimbus
Sannolikhet 40% :
Temporärt
från 20 kl. 12 UTC till 20 kl. 24 UTC
åska, regn

TAF: LIMF 192300Z 2000/2024 VRB05KT CAVOK PROB40 TEMPO 2012/2024 TSRA

Aktuella väderrapporter och prognoser från 4000 flygplatser (METAR- och TAF-rapporter).

De tillgängliga stationerna syns som gula och röda prickar på kartan.

För musen över prickarna för att se namnen på stationerna.

Klicka sedan för att få väderrapporter och prognoser.

För att ändra kartan: Klicka på de gröna knapparna med ett svart kors på för att zooma in; den gröna knappen med ett streck på för att zooma ut; eller på de gröna pilarna för angränsande kartor.


METAR-TAF: